sensor_id;sensor_type;location;lat;lon;timestamp;P1;durP1;ratioP1;P2;durP2;ratioP2
64986;SDS011;51532;52.108;9.360;2022-11-25T00:01:49;16.90;;;11.05;;
64986;SDS011;51532;52.108;9.360;2022-11-25T00:04:35;17.35;;;10.63;;
64986;SDS011;51532;52.108;9.360;2022-11-25T00:07:22;13.98;;;9.57;;
64986;SDS011;51532;52.108;9.360;2022-11-25T00:10:08;14.27;;;9.57;;
64986;SDS011;51532;52.108;9.360;2022-11-25T00:12:54;14.23;;;9.60;;
64986;SDS011;51532;52.108;9.360;2022-11-25T00:15:40;16.75;;;9.13;;
64986;SDS011;51532;52.108;9.360;2022-11-25T00:18:26;19.10;;;8.88;;
64986;SDS011;51532;52.108;9.360;2022-11-25T00:21:13;14.93;;;8.23;;
64986;SDS011;51532;52.108;9.360;2022-11-25T00:24:02;17.83;;;8.95;;
64986;SDS011;51532;52.108;9.360;2022-11-25T00:26:49;12.30;;;8.43;;
64986;SDS011;51532;52.108;9.360;2022-11-25T00:29:35;16.58;;;9.30;;
64986;SDS011;51532;52.108;9.360;2022-11-25T00:32:20;13.65;;;7.80;;
64986;SDS011;51532;52.108;9.360;2022-11-25T00:35:07;11.68;;;8.40;;
64986;SDS011;51532;52.108;9.360;2022-11-25T00:37:53;13.02;;;7.90;;
64986;SDS011;51532;52.108;9.360;2022-11-25T00:40:38;14.57;;;7.53;;
64986;SDS011;51532;52.108;9.360;2022-11-25T00:43:26;13.73;;;7.63;;
64986;SDS011;51532;52.108;9.360;2022-11-25T00:46:31;11.95;;;6.70;;
64986;SDS011;51532;52.108;9.360;2022-11-25T00:49:17;11.50;;;7.75;;
64986;SDS011;51532;52.108;9.360;2022-11-25T00:52:03;14.98;;;7.45;;
64986;SDS011;51532;52.108;9.360;2022-11-25T00:54:50;14.43;;;7.82;;
64986;SDS011;51532;52.108;9.360;2022-11-25T00:57:36;17.33;;;8.02;;
64986;SDS011;51532;52.108;9.360;2022-11-25T01:00:23;11.48;;;7.13;;
64986;SDS011;51532;52.108;9.360;2022-11-25T01:03:09;14.52;;;7.93;;
64986;SDS011;51532;52.108;9.360;2022-11-25T01:05:59;14.38;;;6.82;;
64986;SDS011;51532;52.108;9.360;2022-11-25T01:08:45;13.23;;;7.45;;
64986;SDS011;51532;52.108;9.360;2022-11-25T01:11:31;11.73;;;7.53;;
64986;SDS011;51532;52.108;9.360;2022-11-25T01:14:17;13.57;;;6.88;;
64986;SDS011;51532;52.108;9.360;2022-11-25T01:17:04;12.35;;;7.38;;
64986;SDS011;51532;52.108;9.360;2022-11-25T01:19:50;10.20;;;6.82;;
64986;SDS011;51532;52.108;9.360;2022-11-25T01:22:37;15.32;;;7.70;;
64986;SDS011;51532;52.108;9.360;2022-11-25T01:25:22;13.25;;;7.50;;
64986;SDS011;51532;52.108;9.360;2022-11-25T01:28:08;13.85;;;7.20;;
64986;SDS011;51532;52.108;9.360;2022-11-25T01:31:06;13.57;;;7.63;;
64986;SDS011;51532;52.108;9.360;2022-11-25T01:33:54;12.73;;;7.45;;
64986;SDS011;51532;52.108;9.360;2022-11-25T01:36:44;11.63;;;7.60;;
64986;SDS011;51532;52.108;9.360;2022-11-25T01:39:30;13.70;;;7.22;;
64986;SDS011;51532;52.108;9.360;2022-11-25T01:42:18;12.63;;;7.68;;
64986;SDS011;51532;52.108;9.360;2022-11-25T01:48:17;15.55;;;7.45;;
64986;SDS011;51532;52.108;9.360;2022-11-25T01:51:15;12.75;;;7.47;;
64986;SDS011;51532;52.108;9.360;2022-11-25T01:54:10;12.52;;;7.70;;
64986;SDS011;51532;52.108;9.360;2022-11-25T01:56:58;13.23;;;7.22;;
64986;SDS011;51532;52.108;9.360;2022-11-25T01:59:49;12.80;;;7.35;;
64986;SDS011;51532;52.108;9.360;2022-11-25T02:02:37;12.77;;;7.18;;
64986;SDS011;51532;52.108;9.360;2022-11-25T02:05:58;12.13;;;6.38;;
64986;SDS011;51532;52.108;9.360;2022-11-25T02:09:10;12.98;;;6.50;;
64986;SDS011;51532;52.108;9.360;2022-11-25T02:11:58;13.50;;;5.55;;
64986;SDS011;51532;52.108;9.360;2022-11-25T02:14:47;11.00;;;5.00;;
64986;SDS011;51532;52.108;9.360;2022-11-25T02:17:35;13.18;;;5.07;;
64986;SDS011;51532;52.108;9.360;2022-11-25T02:20:22;9.27;;;4.80;;
64986;SDS011;51532;52.108;9.360;2022-11-25T02:26:26;13.80;;;4.80;;
64986;SDS011;51532;52.108;9.360;2022-11-25T02:29:12;13.38;;;5.30;;
64986;SDS011;51532;52.108;9.360;2022-11-25T02:31:58;7.10;;;4.07;;
64986;SDS011;51532;52.108;9.360;2022-11-25T02:34:45;11.43;;;4.15;;
64986;SDS011;51532;52.108;9.360;2022-11-25T02:37:32;7.13;;;4.28;;
64986;SDS011;51532;52.108;9.360;2022-11-25T02:40:18;11.63;;;4.63;;
64986;SDS011;51532;52.108;9.360;2022-11-25T02:43:04;9.63;;;4.72;;
64986;SDS011;51532;52.108;9.360;2022-11-25T02:46:00;10.75;;;4.60;;
64986;SDS011;51532;52.108;9.360;2022-11-25T02:48:49;11.15;;;4.40;;
64986;SDS011;51532;52.108;9.360;2022-11-25T02:51:57;12.02;;;3.92;;
64986;SDS011;51532;52.108;9.360;2022-11-25T02:54:45;13.30;;;4.25;;
64986;SDS011;51532;52.108;9.360;2022-11-25T02:57:32;10.93;;;4.13;;
64986;SDS011;51532;52.108;9.360;2022-11-25T03:00:19;11.05;;;3.97;;
64986;SDS011;51532;52.108;9.360;2022-11-25T03:03:06;8.57;;;4.05;;
64986;SDS011;51532;52.108;9.360;2022-11-25T03:05:52;8.27;;;4.07;;
64986;SDS011;51532;52.108;9.360;2022-11-25T03:08:38;12.23;;;4.53;;
64986;SDS011;51532;52.108;9.360;2022-11-25T03:11:27;9.70;;;4.35;;
64986;SDS011;51532;52.108;9.360;2022-11-25T03:14:33;9.80;;;4.95;;
64986;SDS011;51532;52.108;9.360;2022-11-25T03:17:20;14.60;;;4.32;;
64986;SDS011;51532;52.108;9.360;2022-11-25T03:20:06;12.40;;;4.32;;
64986;SDS011;51532;52.108;9.360;2022-11-25T03:22:52;10.73;;;4.18;;
64986;SDS011;51532;52.108;9.360;2022-11-25T03:25:38;10.35;;;4.13;;
64986;SDS011;51532;52.108;9.360;2022-11-25T03:28:24;8.45;;;4.30;;
64986;SDS011;51532;52.108;9.360;2022-11-25T03:31:10;10.32;;;4.00;;
64986;SDS011;51532;52.108;9.360;2022-11-25T03:33:56;8.27;;;4.13;;
64986;SDS011;51532;52.108;9.360;2022-11-25T03:36:42;7.85;;;3.75;;
64986;SDS011;51532;52.108;9.360;2022-11-25T03:39:27;10.38;;;3.75;;
64986;SDS011;51532;52.108;9.360;2022-11-25T03:42:14;14.95;;;4.75;;
64986;SDS011;51532;52.108;9.360;2022-11-25T03:45:00;7.88;;;4.30;;
64986;SDS011;51532;52.108;9.360;2022-11-25T03:47:46;13.88;;;5.13;;
64986;SDS011;51532;52.108;9.360;2022-11-25T03:50:32;12.18;;;5.55;;
64986;SDS011;51532;52.108;9.360;2022-11-25T03:53:18;10.27;;;4.18;;
64986;SDS011;51532;52.108;9.360;2022-11-25T03:56:04;12.90;;;4.38;;
64986;SDS011;51532;52.108;9.360;2022-11-25T03:58:51;9.25;;;4.05;;
64986;SDS011;51532;52.108;9.360;2022-11-25T04:01:37;10.23;;;4.75;;
64986;SDS011;51532;52.108;9.360;2022-11-25T04:04:28;14.18;;;4.53;;
64986;SDS011;51532;52.108;9.360;2022-11-25T04:07:14;12.10;;;4.57;;
64986;SDS011;51532;52.108;9.360;2022-11-25T04:10:00;10.95;;;4.03;;
64986;SDS011;51532;52.108;9.360;2022-11-25T04:12:49;8.98;;;3.90;;
64986;SDS011;51532;52.108;9.360;2022-11-25T04:15:47;10.27;;;3.97;;
64986;SDS011;51532;52.108;9.360;2022-11-25T04:18:35;7.47;;;4.10;;
64986;SDS011;51532;52.108;9.360;2022-11-25T04:21:21;10.48;;;4.68;;
64986;SDS011;51532;52.108;9.360;2022-11-25T04:24:07;8.90;;;4.00;;
64986;SDS011;51532;52.108;9.360;2022-11-25T04:26:53;9.20;;;4.45;;
64986;SDS011;51532;52.108;9.360;2022-11-25T04:29:39;10.70;;;4.85;;
64986;SDS011;51532;52.108;9.360;2022-11-25T04:32:26;13.35;;;4.22;;
64986;SDS011;51532;52.108;9.360;2022-11-25T04:35:12;10.73;;;5.03;;
64986;SDS011;51532;52.108;9.360;2022-11-25T04:38:02;9.60;;;4.30;;
64986;SDS011;51532;52.108;9.360;2022-11-25T04:40:51;10.95;;;4.90;;
64986;SDS011;51532;52.108;9.360;2022-11-25T04:43:39;13.77;;;5.30;;
64986;SDS011;51532;52.108;9.360;2022-11-25T04:46:32;11.07;;;5.05;;
64986;SDS011;51532;52.108;9.360;2022-11-25T04:49:22;9.98;;;4.15;;
64986;SDS011;51532;52.108;9.360;2022-11-25T04:52:07;9.18;;;4.55;;
64986;SDS011;51532;52.108;9.360;2022-11-25T04:54:53;11.63;;;4.50;;
64986;SDS011;51532;52.108;9.360;2022-11-25T04:57:40;10.38;;;4.90;;
64986;SDS011;51532;52.108;9.360;2022-11-25T05:00:27;10.82;;;4.78;;
64986;SDS011;51532;52.108;9.360;2022-11-25T05:03:14;9.18;;;4.30;;
64986;SDS011;51532;52.108;9.360;2022-11-25T05:06:04;16.08;;;5.20;;
64986;SDS011;51532;52.108;9.360;2022-11-25T05:08:52;14.82;;;5.13;;
64986;SDS011;51532;52.108;9.360;2022-11-25T05:11:40;8.68;;;4.50;;
64986;SDS011;51532;52.108;9.360;2022-11-25T05:14:26;12.82;;;4.85;;
64986;SDS011;51532;52.108;9.360;2022-11-25T05:17:13;12.85;;;5.07;;
64986;SDS011;51532;52.108;9.360;2022-11-25T05:20:03;11.32;;;4.25;;
64986;SDS011;51532;52.108;9.360;2022-11-25T05:22:51;10.38;;;4.30;;
64986;SDS011;51532;52.108;9.360;2022-11-25T05:25:39;14.40;;;4.75;;
64986;SDS011;51532;52.108;9.360;2022-11-25T05:28:43;10.55;;;4.63;;
64986;SDS011;51532;52.108;9.360;2022-11-25T05:31:29;10.65;;;4.30;;
64986;SDS011;51532;52.108;9.360;2022-11-25T05:34:15;7.28;;;4.10;;
64986;SDS011;51532;52.108;9.360;2022-11-25T05:37:02;8.27;;;4.07;;
64986;SDS011;51532;52.108;9.360;2022-11-25T05:39:51;9.43;;;4.18;;
64986;SDS011;51532;52.108;9.360;2022-11-25T05:42:53;11.10;;;4.28;;
64986;SDS011;51532;52.108;9.360;2022-11-25T05:45:39;9.18;;;4.00;;
64986;SDS011;51532;52.108;9.360;2022-11-25T05:48:27;13.48;;;4.68;;
64986;SDS011;51532;52.108;9.360;2022-11-25T05:51:13;12.07;;;4.43;;
64986;SDS011;51532;52.108;9.360;2022-11-25T05:53:59;9.00;;;4.38;;
64986;SDS011;51532;52.108;9.360;2022-11-25T05:56:47;8.77;;;3.95;;
64986;SDS011;51532;52.108;9.360;2022-11-25T05:59:47;8.05;;;4.00;;
64986;SDS011;51532;52.108;9.360;2022-11-25T06:02:55;12.65;;;4.00;;
64986;SDS011;51532;52.108;9.360;2022-11-25T06:05:42;9.68;;;4.30;;
64986;SDS011;51532;52.108;9.360;2022-11-25T06:08:28;12.13;;;5.00;;
64986;SDS011;51532;52.108;9.360;2022-11-25T06:11:15;9.85;;;4.70;;
64986;SDS011;51532;52.108;9.360;2022-11-25T06:14:02;7.80;;;4.32;;
64986;SDS011;51532;52.108;9.360;2022-11-25T06:16:48;36.60;;;22.33;;
64986;SDS011;51532;52.108;9.360;2022-11-25T06:19:41;39.60;;;23.65;;
64986;SDS011;51532;52.108;9.360;2022-11-25T06:22:27;34.78;;;19.40;;
64986;SDS011;51532;52.108;9.360;2022-11-25T06:25:13;24.63;;;15.38;;
64986;SDS011;51532;52.108;9.360;2022-11-25T06:28:00;45.35;;;27.35;;
64986;SDS011;51532;52.108;9.360;2022-11-25T06:31:07;147.57;;;87.88;;
64986;SDS011;51532;52.108;9.360;2022-11-25T06:34:09;72.45;;;44.45;;
64986;SDS011;51532;52.108;9.360;2022-11-25T06:36:57;44.72;;;24.70;;
64986;SDS011;51532;52.108;9.360;2022-11-25T06:39:43;13.85;;;7.55;;
64986;SDS011;51532;52.108;9.360;2022-11-25T06:42:29;12.57;;;6.10;;
64986;SDS011;51532;52.108;9.360;2022-11-25T06:45:14;11.40;;;4.80;;
64986;SDS011;51532;52.108;9.360;2022-11-25T06:48:00;9.82;;;4.43;;
64986;SDS011;51532;52.108;9.360;2022-11-25T06:50:54;9.95;;;4.15;;
64986;SDS011;51532;52.108;9.360;2022-11-25T06:53:40;12.35;;;4.53;;
64986;SDS011;51532;52.108;9.360;2022-11-25T06:56:26;11.10;;;4.05;;
64986;SDS011;51532;52.108;9.360;2022-11-25T06:59:12;8.88;;;4.65;;
64986;SDS011;51532;52.108;9.360;2022-11-25T07:01:58;10.50;;;4.72;;
64986;SDS011;51532;52.108;9.360;2022-11-25T07:04:44;10.07;;;4.88;;
64986;SDS011;51532;52.108;9.360;2022-11-25T07:07:30;8.77;;;4.47;;
64986;SDS011;51532;52.108;9.360;2022-11-25T07:10:16;12.52;;;4.50;;
64986;SDS011;51532;52.108;9.360;2022-11-25T07:13:02;9.88;;;4.72;;
64986;SDS011;51532;52.108;9.360;2022-11-25T07:15:48;12.88;;;5.00;;
64986;SDS011;51532;52.108;9.360;2022-11-25T07:18:35;7.82;;;4.30;;
64986;SDS011;51532;52.108;9.360;2022-11-25T07:21:22;8.10;;;4.78;;
64986;SDS011;51532;52.108;9.360;2022-11-25T07:24:08;19.27;;;5.07;;
64986;SDS011;51532;52.108;9.360;2022-11-25T07:26:54;10.88;;;4.30;;
64986;SDS011;51532;52.108;9.360;2022-11-25T07:29:40;13.07;;;4.80;;
64986;SDS011;51532;52.108;9.360;2022-11-25T07:32:45;11.50;;;4.18;;
64986;SDS011;51532;52.108;9.360;2022-11-25T07:35:32;12.10;;;4.75;;
64986;SDS011;51532;52.108;9.360;2022-11-25T07:38:18;10.40;;;4.75;;
64986;SDS011;51532;52.108;9.360;2022-11-25T07:41:11;10.77;;;4.88;;
64986;SDS011;51532;52.108;9.360;2022-11-25T07:43:59;13.93;;;5.18;;
64986;SDS011;51532;52.108;9.360;2022-11-25T07:46:49;15.48;;;4.97;;
64986;SDS011;51532;52.108;9.360;2022-11-25T07:49:35;7.55;;;4.60;;
64986;SDS011;51532;52.108;9.360;2022-11-25T07:52:22;9.98;;;4.50;;
64986;SDS011;51532;52.108;9.360;2022-11-25T07:55:08;12.77;;;4.90;;
64986;SDS011;51532;52.108;9.360;2022-11-25T07:57:54;8.15;;;4.18;;
64986;SDS011;51532;52.108;9.360;2022-11-25T08:00:40;13.48;;;4.85;;
64986;SDS011;51532;52.108;9.360;2022-11-25T08:03:26;14.43;;;6.13;;
64986;SDS011;51532;52.108;9.360;2022-11-25T08:06:13;8.02;;;4.97;;
64986;SDS011;51532;52.108;9.360;2022-11-25T08:09:00;12.77;;;5.50;;
64986;SDS011;51532;52.108;9.360;2022-11-25T08:11:47;13.43;;;4.95;;
64986;SDS011;51532;52.108;9.360;2022-11-25T08:14:32;9.20;;;4.40;;
64986;SDS011;51532;52.108;9.360;2022-11-25T08:17:19;8.27;;;4.15;;
64986;SDS011;51532;52.108;9.360;2022-11-25T08:20:05;9.05;;;4.57;;
64986;SDS011;51532;52.108;9.360;2022-11-25T08:22:52;11.80;;;5.10;;
64986;SDS011;51532;52.108;9.360;2022-11-25T08:25:41;10.20;;;4.65;;
64986;SDS011;51532;52.108;9.360;2022-11-25T08:28:34;11.73;;;4.65;;
64986;SDS011;51532;52.108;9.360;2022-11-25T08:31:21;14.43;;;4.65;;
64986;SDS011;51532;52.108;9.360;2022-11-25T08:34:20;8.77;;;4.85;;
64986;SDS011;51532;52.108;9.360;2022-11-25T08:37:11;8.57;;;4.38;;
64986;SDS011;51532;52.108;9.360;2022-11-25T08:39:57;13.60;;;5.20;;
64986;SDS011;51532;52.108;9.360;2022-11-25T08:42:44;15.35;;;5.47;;
64986;SDS011;51532;52.108;9.360;2022-11-25T08:45:30;9.63;;;5.13;;
64986;SDS011;51532;52.108;9.360;2022-11-25T08:48:17;13.05;;;5.07;;
64986;SDS011;51532;52.108;9.360;2022-11-25T08:54:20;12.23;;;4.95;;
64986;SDS011;51532;52.108;9.360;2022-11-25T08:57:06;12.68;;;5.60;;
64986;SDS011;51532;52.108;9.360;2022-11-25T08:59:52;13.13;;;5.38;;
64986;SDS011;51532;52.108;9.360;2022-11-25T09:02:38;11.90;;;5.80;;
64986;SDS011;51532;52.108;9.360;2022-11-25T09:05:24;13.43;;;5.93;;
64986;SDS011;51532;52.108;9.360;2022-11-25T09:08:10;11.68;;;5.60;;
64986;SDS011;51532;52.108;9.360;2022-11-25T09:10:56;14.63;;;6.10;;
64986;SDS011;51532;52.108;9.360;2022-11-25T09:13:42;15.23;;;6.30;;
64986;SDS011;51532;52.108;9.360;2022-11-25T09:16:28;12.57;;;7.05;;
64986;SDS011;51532;52.108;9.360;2022-11-25T09:19:14;18.13;;;7.10;;
64986;SDS011;51532;52.108;9.360;2022-11-25T09:21:59;16.50;;;7.10;;
64986;SDS011;51532;52.108;9.360;2022-11-25T09:24:46;13.75;;;7.18;;
64986;SDS011;51532;52.108;9.360;2022-11-25T09:27:31;13.32;;;6.43;;
64986;SDS011;51532;52.108;9.360;2022-11-25T09:30:18;11.73;;;6.15;;
64986;SDS011;51532;52.108;9.360;2022-11-25T09:33:04;13.80;;;5.90;;
64986;SDS011;51532;52.108;9.360;2022-11-25T09:35:49;13.32;;;6.07;;
64986;SDS011;51532;52.108;9.360;2022-11-25T09:38:35;17.77;;;6.30;;
64986;SDS011;51532;52.108;9.360;2022-11-25T09:44:52;12.32;;;6.40;;
64986;SDS011;51532;52.108;9.360;2022-11-25T09:51:06;13.82;;;6.38;;
64986;SDS011;51532;52.108;9.360;2022-11-25T09:54:12;14.20;;;7.00;;
64986;SDS011;51532;52.108;9.360;2022-11-25T09:57:20;11.88;;;6.38;;
64986;SDS011;51532;52.108;9.360;2022-11-25T10:00:14;15.98;;;7.00;;
64986;SDS011;51532;52.108;9.360;2022-11-25T10:03:04;16.23;;;7.53;;
64986;SDS011;51532;52.108;9.360;2022-11-25T10:06:05;11.65;;;5.97;;
64986;SDS011;51532;52.108;9.360;2022-11-25T10:09:14;16.65;;;6.55;;
64986;SDS011;51532;52.108;9.360;2022-11-25T10:12:18;13.45;;;7.20;;
64986;SDS011;51532;52.108;9.360;2022-11-25T10:15:16;14.52;;;6.78;;
64986;SDS011;51532;52.108;9.360;2022-11-25T10:18:03;14.65;;;6.75;;
64986;SDS011;51532;52.108;9.360;2022-11-25T10:21:14;11.57;;;7.00;;
64986;SDS011;51532;52.108;9.360;2022-11-25T10:24:01;12.55;;;6.03;;
64986;SDS011;51532;52.108;9.360;2022-11-25T10:26:52;11.55;;;7.20;;
64986;SDS011;51532;52.108;9.360;2022-11-25T10:29:43;10.10;;;6.53;;
64986;SDS011;51532;52.108;9.360;2022-11-25T10:32:36;12.80;;;7.22;;
64986;SDS011;51532;52.108;9.360;2022-11-25T10:35:28;16.35;;;7.10;;
64986;SDS011;51532;52.108;9.360;2022-11-25T10:38:38;13.07;;;7.25;;
64986;SDS011;51532;52.108;9.360;2022-11-25T10:42:09;13.52;;;6.70;;
64986;SDS011;51532;52.108;9.360;2022-11-25T10:44:50;11.52;;;6.53;;
64986;SDS011;51532;52.108;9.360;2022-11-25T10:50:59;12.57;;;7.65;;
64986;SDS011;51532;52.108;9.360;2022-11-25T10:54:10;10.50;;;7.18;;
64986;SDS011;51532;52.108;9.360;2022-11-25T10:57:18;10.23;;;6.90;;
64986;SDS011;51532;52.108;9.360;2022-11-25T11:00:05;15.38;;;6.82;;
64986;SDS011;51532;52.108;9.360;2022-11-25T11:03:18;12.05;;;7.10;;
64986;SDS011;51532;52.108;9.360;2022-11-25T11:09:33;12.02;;;7.45;;
64986;SDS011;51532;52.108;9.360;2022-11-25T11:12:25;13.10;;;7.85;;
64986;SDS011;51532;52.108;9.360;2022-11-25T11:15:15;12.38;;;7.85;;
64986;SDS011;51532;52.108;9.360;2022-11-25T11:21:22;15.48;;;7.03;;
64986;SDS011;51532;52.108;9.360;2022-11-25T11:27:16;10.57;;;7.10;;
64986;SDS011;51532;52.108;9.360;2022-11-25T11:30:12;14.32;;;7.63;;
64986;SDS011;51532;52.108;9.360;2022-11-25T11:33:08;13.57;;;7.97;;
64986;SDS011;51532;52.108;9.360;2022-11-25T11:42:42;10.50;;;6.35;;
64986;SDS011;51532;52.108;9.360;2022-11-25T11:48:42;12.43;;;7.85;;
64986;SDS011;51532;52.108;9.360;2022-11-25T12:00:25;9.75;;;7.25;;
64986;SDS011;51532;52.108;9.360;2022-11-25T12:03:14;13.13;;;6.93;;
64986;SDS011;51532;52.108;9.360;2022-11-25T12:06:03;11.45;;;7.55;;
64986;SDS011;51532;52.108;9.360;2022-11-25T12:08:51;14.70;;;7.45;;
64986;SDS011;51532;52.108;9.360;2022-11-25T12:11:47;12.88;;;7.68;;
64986;SDS011;51532;52.108;9.360;2022-11-25T12:14:40;10.98;;;7.05;;
64986;SDS011;51532;52.108;9.360;2022-11-25T12:17:38;8.80;;;6.28;;
64986;SDS011;51532;52.108;9.360;2022-11-25T12:23:28;11.70;;;6.70;;
64986;SDS011;51532;52.108;9.360;2022-11-25T12:26:18;11.13;;;6.40;;
64986;SDS011;51532;52.108;9.360;2022-11-25T12:29:09;11.50;;;6.38;;
64986;SDS011;51532;52.108;9.360;2022-11-25T12:35:16;11.98;;;6.50;;
64986;SDS011;51532;52.108;9.360;2022-11-25T12:41:18;10.90;;;6.80;;
64986;SDS011;51532;52.108;9.360;2022-11-25T12:44:23;11.73;;;6.75;;
64986;SDS011;51532;52.108;9.360;2022-11-25T12:47:10;12.18;;;6.75;;
64986;SDS011;51532;52.108;9.360;2022-11-25T12:49:56;10.57;;;7.60;;
64986;SDS011;51532;52.108;9.360;2022-11-25T12:55:31;11.75;;;7.72;;
64986;SDS011;51532;52.108;9.360;2022-11-25T13:07:23;11.38;;;7.07;;
64986;SDS011;51532;52.108;9.360;2022-11-25T13:10:30;15.75;;;8.25;;
64986;SDS011;51532;52.108;9.360;2022-11-25T13:16:17;11.23;;;7.53;;
64986;SDS011;51532;52.108;9.360;2022-11-25T13:19:08;9.85;;;6.70;;
64986;SDS011;51532;52.108;9.360;2022-11-25T13:21:57;11.43;;;7.25;;
64986;SDS011;51532;52.108;9.360;2022-11-25T13:24:48;8.23;;;5.90;;
64986;SDS011;51532;52.108;9.360;2022-11-25T13:27:55;8.52;;;6.65;;
64986;SDS011;51532;52.108;9.360;2022-11-25T13:30:39;9.88;;;6.05;;
64986;SDS011;51532;52.108;9.360;2022-11-25T13:36:15;10.07;;;7.40;;
64986;SDS011;51532;52.108;9.360;2022-11-25T13:39:03;7.93;;;6.97;;
64986;SDS011;51532;52.108;9.360;2022-11-25T13:41:59;8.32;;;7.05;;
64986;SDS011;51532;52.108;9.360;2022-11-25T13:45:19;11.50;;;7.78;;
64986;SDS011;51532;52.108;9.360;2022-11-25T13:48:18;10.23;;;8.10;;
64986;SDS011;51532;52.108;9.360;2022-11-25T13:54:03;13.80;;;9.05;;
64986;SDS011;51532;52.108;9.360;2022-11-25T14:00:24;12.75;;;8.50;;
64986;SDS011;51532;52.108;9.360;2022-11-25T14:06:07;10.85;;;7.50;;
64986;SDS011;51532;52.108;9.360;2022-11-25T14:09:18;12.75;;;7.85;;
64986;SDS011;51532;52.108;9.360;2022-11-25T14:27:14;19.98;;;11.38;;
64986;SDS011;51532;52.108;9.360;2022-11-25T14:30:11;34.72;;;22.42;;
64986;SDS011;51532;52.108;9.360;2022-11-25T14:33:01;30.73;;;22.25;;
64986;SDS011;51532;52.108;9.360;2022-11-25T14:35:50;42.92;;;30.50;;
64986;SDS011;51532;52.108;9.360;2022-11-25T14:38:44;33.20;;;23.20;;
64986;SDS011;51532;52.108;9.360;2022-11-25T14:41:41;33.50;;;19.92;;
64986;SDS011;51532;52.108;9.360;2022-11-25T14:44:36;27.27;;;18.65;;
64986;SDS011;51532;52.108;9.360;2022-11-25T14:47:31;39.80;;;26.23;;
64986;SDS011;51532;52.108;9.360;2022-11-25T14:50:22;19.23;;;13.63;;
64986;SDS011;51532;52.108;9.360;2022-11-25T14:53:24;41.95;;;28.92;;
64986;SDS011;51532;52.108;9.360;2022-11-25T14:56:11;23.70;;;16.13;;
64986;SDS011;51532;52.108;9.360;2022-11-25T14:58:58;17.25;;;12.68;;
64986;SDS011;51532;52.108;9.360;2022-11-25T15:01:51;54.53;;;38.13;;
64986;SDS011;51532;52.108;9.360;2022-11-25T15:04:39;19.50;;;13.32;;
64986;SDS011;51532;52.108;9.360;2022-11-25T15:07:25;16.88;;;13.45;;
64986;SDS011;51532;52.108;9.360;2022-11-25T15:10:31;16.48;;;11.77;;
64986;SDS011;51532;52.108;9.360;2022-11-25T15:13:35;17.98;;;12.23;;
64986;SDS011;51532;52.108;9.360;2022-11-25T15:16:41;15.32;;;12.13;;
64986;SDS011;51532;52.108;9.360;2022-11-25T15:19:30;21.42;;;15.27;;
64986;SDS011;51532;52.108;9.360;2022-11-25T15:22:18;16.42;;;14.35;;
64986;SDS011;51532;52.108;9.360;2022-11-25T15:25:09;18.80;;;14.10;;
64986;SDS011;51532;52.108;9.360;2022-11-25T15:27:58;19.55;;;13.70;;
64986;SDS011;51532;52.108;9.360;2022-11-25T15:30:57;18.85;;;13.63;;
64986;SDS011;51532;52.108;9.360;2022-11-25T15:33:45;22.08;;;13.38;;
64986;SDS011;51532;52.108;9.360;2022-11-25T15:36:32;18.35;;;12.77;;
64986;SDS011;51532;52.108;9.360;2022-11-25T15:44:55;20.40;;;12.55;;
64986;SDS011;51532;52.108;9.360;2022-11-25T15:47:52;24.08;;;13.95;;
64986;SDS011;51532;52.108;9.360;2022-11-25T15:50:38;19.38;;;13.13;;
64986;SDS011;51532;52.108;9.360;2022-11-25T15:53:24;19.25;;;13.65;;
64986;SDS011;51532;52.108;9.360;2022-11-25T15:56:18;17.75;;;13.52;;
64986;SDS011;51532;52.108;9.360;2022-11-25T15:59:33;20.00;;;14.55;;
64986;SDS011;51532;52.108;9.360;2022-11-25T16:05:32;18.10;;;13.85;;
64986;SDS011;51532;52.108;9.360;2022-11-25T16:08:24;19.92;;;13.15;;
64986;SDS011;51532;52.108;9.360;2022-11-25T16:11:15;19.00;;;13.60;;
64986;SDS011;51532;52.108;9.360;2022-11-25T16:17:12;18.65;;;13.25;;
64986;SDS011;51532;52.108;9.360;2022-11-25T16:19:58;16.77;;;13.55;;
64986;SDS011;51532;52.108;9.360;2022-11-25T16:22:44;19.05;;;14.00;;
64986;SDS011;51532;52.108;9.360;2022-11-25T16:25:31;17.23;;;13.23;;
64986;SDS011;51532;52.108;9.360;2022-11-25T16:28:20;18.42;;;13.73;;
64986;SDS011;51532;52.108;9.360;2022-11-25T16:31:16;18.05;;;14.07;;
64986;SDS011;51532;52.108;9.360;2022-11-25T16:34:11;17.08;;;14.68;;
64986;SDS011;51532;52.108;9.360;2022-11-25T16:36:57;23.50;;;17.17;;
64986;SDS011;51532;52.108;9.360;2022-11-25T16:39:43;22.25;;;17.60;;
64986;SDS011;51532;52.108;9.360;2022-11-25T16:42:29;22.20;;;17.25;;
64986;SDS011;51532;52.108;9.360;2022-11-25T16:45:19;20.42;;;16.33;;
64986;SDS011;51532;52.108;9.360;2022-11-25T16:48:17;25.23;;;18.38;;
64986;SDS011;51532;52.108;9.360;2022-11-25T16:51:07;23.98;;;18.02;;
64986;SDS011;51532;52.108;9.360;2022-11-25T16:53:59;23.73;;;18.27;;
64986;SDS011;51532;52.108;9.360;2022-11-25T16:56:46;26.73;;;20.55;;
64986;SDS011;51532;52.108;9.360;2022-11-25T16:59:35;27.30;;;19.48;;
64986;SDS011;51532;52.108;9.360;2022-11-25T17:02:25;24.20;;;18.58;;
64986;SDS011;51532;52.108;9.360;2022-11-25T17:05:15;20.65;;;18.20;;
64986;SDS011;51532;52.108;9.360;2022-11-25T17:08:03;26.35;;;18.25;;
64986;SDS011;51532;52.108;9.360;2022-11-25T17:10:49;19.42;;;17.23;;
64986;SDS011;51532;52.108;9.360;2022-11-25T17:13:37;23.20;;;15.43;;
64986;SDS011;51532;52.108;9.360;2022-11-25T17:16:26;18.88;;;16.05;;
64986;SDS011;51532;52.108;9.360;2022-11-25T17:19:13;31.33;;;22.17;;
64986;SDS011;51532;52.108;9.360;2022-11-25T17:22:00;25.60;;;15.48;;
64986;SDS011;51532;52.108;9.360;2022-11-25T17:24:46;21.85;;;15.77;;
64986;SDS011;51532;52.108;9.360;2022-11-25T17:27:32;18.02;;;14.90;;
64986;SDS011;51532;52.108;9.360;2022-11-25T17:30:19;24.42;;;16.42;;
64986;SDS011;51532;52.108;9.360;2022-11-25T17:33:08;24.83;;;18.15;;
64986;SDS011;51532;52.108;9.360;2022-11-25T17:36:00;28.98;;;20.00;;
64986;SDS011;51532;52.108;9.360;2022-11-25T17:38:46;22.60;;;18.83;;
64986;SDS011;51532;52.108;9.360;2022-11-25T17:41:32;25.83;;;21.10;;
64986;SDS011;51532;52.108;9.360;2022-11-25T17:44:25;28.52;;;21.33;;
64986;SDS011;51532;52.108;9.360;2022-11-25T17:47:14;25.33;;;21.13;;
64986;SDS011;51532;52.108;9.360;2022-11-25T17:50:00;29.67;;;22.83;;
64986;SDS011;51532;52.108;9.360;2022-11-25T17:52:46;28.02;;;21.75;;
64986;SDS011;51532;52.108;9.360;2022-11-25T17:55:34;26.52;;;23.30;;
64986;SDS011;51532;52.108;9.360;2022-11-25T17:58:21;26.17;;;21.80;;
64986;SDS011;51532;52.108;9.360;2022-11-25T18:01:07;32.80;;;24.23;;
64986;SDS011;51532;52.108;9.360;2022-11-25T18:03:53;24.77;;;18.35;;
64986;SDS011;51532;52.108;9.360;2022-11-25T18:06:39;23.20;;;18.05;;
64986;SDS011;51532;52.108;9.360;2022-11-25T18:09:25;26.17;;;18.15;;
64986;SDS011;51532;52.108;9.360;2022-11-25T18:12:16;27.05;;;18.25;;
64986;SDS011;51532;52.108;9.360;2022-11-25T18:15:16;25.85;;;18.73;;
64986;SDS011;51532;52.108;9.360;2022-11-25T18:18:05;25.48;;;18.77;;
64986;SDS011;51532;52.108;9.360;2022-11-25T18:21:03;27.48;;;19.63;;
64986;SDS011;51532;52.108;9.360;2022-11-25T18:23:49;27.77;;;18.88;;
64986;SDS011;51532;52.108;9.360;2022-11-25T18:26:36;26.92;;;18.70;;
64986;SDS011;51532;52.108;9.360;2022-11-25T18:29:32;33.53;;;22.23;;
64986;SDS011;51532;52.108;9.360;2022-11-25T18:32:18;31.75;;;21.42;;
64986;SDS011;51532;52.108;9.360;2022-11-25T18:35:15;31.40;;;20.63;;
64986;SDS011;51532;52.108;9.360;2022-11-25T18:38:19;22.88;;;18.98;;
64986;SDS011;51532;52.108;9.360;2022-11-25T18:41:05;27.27;;;19.13;;